KBUU

Burlington Municipal Airport

Burlington, Wisconsin, USA
METAR KBUU 210355Z AUTO 00000KT 10SM SCT050 SCT065 SCT075 20/19 A2980 RMK AO2 T01980191
Observed Flight Rules
Aug-21 @ 03:55 UTC (17 minutes ago) Visual Flight Rules
Visibility Clouds
10 miles
  • Scattered at 5,000' AGL
  • Scattered at 6,500' AGL
  • Scattered at 7,500' AGL
Temperatures Readings
Current 20°C / 68°F
Dewpoint 19°C / 66°F
Humidity 94%
Altimeter 29.8" Hg
Pressure 1009 hPa
Elevation 237
METAR KBUU 210355Z AUTO 00000KT 10SM SCT050 SCT065 SCT075 20/19 A2980 RMK AO2 T01980191
Observed Flight Rules
Aug-21 @ 03:55 UTC
(17 minutes ago)
VFR
Clouds
  • Scattered at 5,000' AGL
  • Scattered at 6,500' AGL
  • Scattered at 7,500' AGL
Temperature Dewpoint
20°C / 68°F 19°C / 66°F
Humidity Altimeter Pressure
94% 29.8" Hg 1009 hPa